sensor_id;sensor_type;location;lat;lon;timestamp;P1;durP1;ratioP1;P2;durP2;ratioP2
9374;SDS011;4727;51.202;6.344;2022-12-29T00:01:22;0.90;;;0.90;;
9374;SDS011;4727;51.202;6.344;2022-12-29T00:03:48;2.80;;;0.93;;
9374;SDS011;4727;51.202;6.344;2022-12-29T00:06:14;2.10;;;1.17;;
9374;SDS011;4727;51.202;6.344;2022-12-29T00:08:40;1.00;;;0.83;;
9374;SDS011;4727;51.202;6.344;2022-12-29T00:11:18;1.20;;;1.20;;
9374;SDS011;4727;51.202;6.344;2022-12-29T00:13:44;1.47;;;1.30;;
9374;SDS011;4727;51.202;6.344;2022-12-29T00:16:30;1.30;;;0.90;;
9374;SDS011;4727;51.202;6.344;2022-12-29T00:18:56;2.97;;;1.27;;
9374;SDS011;4727;51.202;6.344;2022-12-29T00:21:23;1.13;;;1.13;;
9374;SDS011;4727;51.202;6.344;2022-12-29T00:24:15;1.50;;;1.20;;
9374;SDS011;4727;51.202;6.344;2022-12-29T00:27:11;0.90;;;0.90;;
9374;SDS011;4727;51.202;6.344;2022-12-29T00:29:56;1.60;;;1.13;;
9374;SDS011;4727;51.202;6.344;2022-12-29T00:32:41;0.90;;;0.90;;
9374;SDS011;4727;51.202;6.344;2022-12-29T00:35:27;0.87;;;0.87;;
9374;SDS011;4727;51.202;6.344;2022-12-29T00:37:53;0.90;;;0.90;;
9374;SDS011;4727;51.202;6.344;2022-12-29T00:40:40;0.70;;;0.70;;
9374;SDS011;4727;51.202;6.344;2022-12-29T00:43:24;1.23;;;1.00;;
9374;SDS011;4727;51.202;6.344;2022-12-29T00:46:09;0.73;;;0.73;;
9374;SDS011;4727;51.202;6.344;2022-12-29T00:48:35;0.97;;;0.97;;
9374;SDS011;4727;51.202;6.344;2022-12-29T00:51:20;0.40;;;0.40;;
9374;SDS011;4727;51.202;6.344;2022-12-29T00:53:46;0.80;;;0.80;;
9374;SDS011;4727;51.202;6.344;2022-12-29T00:56:12;1.77;;;0.60;;
9374;SDS011;4727;51.202;6.344;2022-12-29T00:58:38;0.37;;;0.37;;
9374;SDS011;4727;51.202;6.344;2022-12-29T01:01:07;0.63;;;0.50;;
9374;SDS011;4727;51.202;6.344;2022-12-29T01:03:34;0.60;;;0.60;;
9374;SDS011;4727;51.202;6.344;2022-12-29T01:06:01;0.43;;;0.43;;
9374;SDS011;4727;51.202;6.344;2022-12-29T01:08:28;0.70;;;0.70;;
9374;SDS011;4727;51.202;6.344;2022-12-29T01:10:57;0.60;;;0.60;;
9374;SDS011;4727;51.202;6.344;2022-12-29T01:13:23;0.73;;;0.73;;
9374;SDS011;4727;51.202;6.344;2022-12-29T01:15:52;0.30;;;0.30;;
9374;SDS011;4727;51.202;6.344;2022-12-29T01:18:19;0.73;;;0.73;;
9374;SDS011;4727;51.202;6.344;2022-12-29T01:20:45;0.60;;;0.60;;
9374;SDS011;4727;51.202;6.344;2022-12-29T01:23:11;1.27;;;0.50;;
9374;SDS011;4727;51.202;6.344;2022-12-29T01:25:37;0.60;;;0.60;;
9374;SDS011;4727;51.202;6.344;2022-12-29T01:28:03;0.60;;;0.60;;
9374;SDS011;4727;51.202;6.344;2022-12-29T01:30:29;0.50;;;0.50;;
9374;SDS011;4727;51.202;6.344;2022-12-29T01:32:55;0.70;;;0.70;;
9374;SDS011;4727;51.202;6.344;2022-12-29T01:35:21;0.77;;;0.77;;
9374;SDS011;4727;51.202;6.344;2022-12-29T01:37:47;0.70;;;0.70;;
9374;SDS011;4727;51.202;6.344;2022-12-29T01:40:13;1.07;;;0.67;;
9374;SDS011;4727;51.202;6.344;2022-12-29T01:42:39;1.17;;;0.60;;
9374;SDS011;4727;51.202;6.344;2022-12-29T01:47:38;0.83;;;0.80;;
9374;SDS011;4727;51.202;6.344;2022-12-29T01:50:12;2.00;;;0.60;;
9374;SDS011;4727;51.202;6.344;2022-12-29T01:52:42;1.13;;;1.03;;
9374;SDS011;4727;51.202;6.344;2022-12-29T01:55:09;1.13;;;0.80;;
9374;SDS011;4727;51.202;6.344;2022-12-29T01:57:37;1.23;;;1.13;;
9374;SDS011;4727;51.202;6.344;2022-12-29T02:00:05;1.60;;;0.70;;
9374;SDS011;4727;51.202;6.344;2022-12-29T02:02:33;0.83;;;0.83;;
9374;SDS011;4727;51.202;6.344;2022-12-29T02:05:00;1.73;;;1.43;;
9374;SDS011;4727;51.202;6.344;2022-12-29T02:07:28;0.90;;;0.90;;
9374;SDS011;4727;51.202;6.344;2022-12-29T02:09:54;1.80;;;0.90;;
9374;SDS011;4727;51.202;6.344;2022-12-29T02:12:21;1.97;;;1.60;;
9374;SDS011;4727;51.202;6.344;2022-12-29T02:14:49;0.80;;;0.80;;
9374;SDS011;4727;51.202;6.344;2022-12-29T02:17:20;1.50;;;1.40;;
9374;SDS011;4727;51.202;6.344;2022-12-29T02:20:04;1.57;;;0.90;;
9374;SDS011;4727;51.202;6.344;2022-12-29T02:41:07;1.20;;;1.10;;
9374;SDS011;4727;51.202;6.344;2022-12-29T02:43:38;1.30;;;1.07;;
9374;SDS011;4727;51.202;6.344;2022-12-29T02:46:10;1.80;;;1.63;;
9374;SDS011;4727;51.202;6.344;2022-12-29T02:48:43;1.57;;;1.33;;
9374;SDS011;4727;51.202;6.344;2022-12-29T02:51:25;1.43;;;1.10;;
9374;SDS011;4727;51.202;6.344;2022-12-29T02:53:53;1.80;;;1.10;;
9374;SDS011;4727;51.202;6.344;2022-12-29T02:56:39;1.13;;;1.03;;
9374;SDS011;4727;51.202;6.344;2022-12-29T02:59:05;1.10;;;1.00;;
9374;SDS011;4727;51.202;6.344;2022-12-29T03:11:59;2.33;;;1.03;;
9374;SDS011;4727;51.202;6.344;2022-12-29T03:14:47;1.57;;;1.27;;
9374;SDS011;4727;51.202;6.344;2022-12-29T03:17:40;1.93;;;1.00;;
9374;SDS011;4727;51.202;6.344;2022-12-29T03:20:09;0.90;;;0.90;;
9374;SDS011;4727;51.202;6.344;2022-12-29T03:22:38;1.43;;;0.80;;
9374;SDS011;4727;51.202;6.344;2022-12-29T03:25:10;0.87;;;0.87;;
9374;SDS011;4727;51.202;6.344;2022-12-29T03:27:39;1.17;;;1.13;;
9374;SDS011;4727;51.202;6.344;2022-12-29T03:30:06;1.07;;;0.80;;
9374;SDS011;4727;51.202;6.344;2022-12-29T03:32:35;2.47;;;0.93;;
9374;SDS011;4727;51.202;6.344;2022-12-29T03:35:02;1.03;;;0.80;;
9374;SDS011;4727;51.202;6.344;2022-12-29T03:37:31;0.83;;;0.83;;
9374;SDS011;4727;51.202;6.344;2022-12-29T03:40:00;1.20;;;1.00;;
9374;SDS011;4727;51.202;6.344;2022-12-29T03:42:27;2.03;;;1.00;;
9374;SDS011;4727;51.202;6.344;2022-12-29T03:44:55;1.37;;;0.80;;
9374;SDS011;4727;51.202;6.344;2022-12-29T03:47:22;0.80;;;0.80;;
9374;SDS011;4727;51.202;6.344;2022-12-29T03:49:48;0.93;;;0.93;;
9374;SDS011;4727;51.202;6.344;2022-12-29T03:52:14;1.47;;;0.90;;
9374;SDS011;4727;51.202;6.344;2022-12-29T03:54:40;1.10;;;0.83;;
9374;SDS011;4727;51.202;6.344;2022-12-29T03:57:06;1.33;;;0.90;;
9374;SDS011;4727;51.202;6.344;2022-12-29T03:59:32;1.53;;;1.00;;
9374;SDS011;4727;51.202;6.344;2022-12-29T04:01:58;0.80;;;0.80;;
9374;SDS011;4727;51.202;6.344;2022-12-29T04:04:24;1.47;;;1.10;;
9374;SDS011;4727;51.202;6.344;2022-12-29T04:06:50;0.80;;;0.80;;
9374;SDS011;4727;51.202;6.344;2022-12-29T04:09:16;0.90;;;0.90;;
9374;SDS011;4727;51.202;6.344;2022-12-29T04:11:42;1.50;;;0.73;;
9374;SDS011;4727;51.202;6.344;2022-12-29T04:14:08;1.57;;;0.70;;
9374;SDS011;4727;51.202;6.344;2022-12-29T04:16:34;1.07;;;0.97;;
9374;SDS011;4727;51.202;6.344;2022-12-29T04:19:01;0.40;;;0.40;;
9374;SDS011;4727;51.202;6.344;2022-12-29T04:21:27;0.43;;;0.43;;
9374;SDS011;4727;51.202;6.344;2022-12-29T04:23:53;1.37;;;1.03;;
9374;SDS011;4727;51.202;6.344;2022-12-29T04:26:19;1.40;;;1.10;;
9374;SDS011;4727;51.202;6.344;2022-12-29T04:28:45;1.60;;;1.10;;
9374;SDS011;4727;51.202;6.344;2022-12-29T04:31:11;1.03;;;1.03;;
9374;SDS011;4727;51.202;6.344;2022-12-29T04:33:37;1.07;;;1.00;;
9374;SDS011;4727;51.202;6.344;2022-12-29T04:36:03;1.43;;;1.00;;
9374;SDS011;4727;51.202;6.344;2022-12-29T04:38:29;0.90;;;0.70;;
9374;SDS011;4727;51.202;6.344;2022-12-29T04:40:55;0.90;;;0.90;;
9374;SDS011;4727;51.202;6.344;2022-12-29T04:43:24;1.43;;;0.97;;
9374;SDS011;4727;51.202;6.344;2022-12-29T04:45:50;1.30;;;0.87;;
9374;SDS011;4727;51.202;6.344;2022-12-29T04:48:16;0.77;;;0.77;;
9374;SDS011;4727;51.202;6.344;2022-12-29T04:50:42;1.80;;;1.00;;
9374;SDS011;4727;51.202;6.344;2022-12-29T04:53:08;0.97;;;0.90;;
9374;SDS011;4727;51.202;6.344;2022-12-29T04:55:34;1.00;;;0.90;;
9374;SDS011;4727;51.202;6.344;2022-12-29T04:58:00;3.57;;;1.53;;
9374;SDS011;4727;51.202;6.344;2022-12-29T05:00:26;1.00;;;1.00;;
9374;SDS011;4727;51.202;6.344;2022-12-29T05:02:52;1.57;;;1.13;;
9374;SDS011;4727;51.202;6.344;2022-12-29T05:05:18;0.77;;;0.77;;
9374;SDS011;4727;51.202;6.344;2022-12-29T05:07:44;0.80;;;0.80;;
9374;SDS011;4727;51.202;6.344;2022-12-29T05:10:11;1.63;;;1.00;;
9374;SDS011;4727;51.202;6.344;2022-12-29T05:12:37;1.00;;;0.87;;
9374;SDS011;4727;51.202;6.344;2022-12-29T05:15:05;1.20;;;1.10;;
9374;SDS011;4727;51.202;6.344;2022-12-29T05:17:31;1.83;;;1.37;;
9374;SDS011;4727;51.202;6.344;2022-12-29T05:19:57;1.60;;;1.27;;
9374;SDS011;4727;51.202;6.344;2022-12-29T05:22:23;2.63;;;1.13;;
9374;SDS011;4727;51.202;6.344;2022-12-29T05:24:49;1.37;;;1.27;;
9374;SDS011;4727;51.202;6.344;2022-12-29T05:27:15;0.97;;;0.87;;
9374;SDS011;4727;51.202;6.344;2022-12-29T05:29:41;0.80;;;0.70;;
9374;SDS011;4727;51.202;6.344;2022-12-29T05:32:07;2.73;;;1.20;;
9374;SDS011;4727;51.202;6.344;2022-12-29T05:34:33;1.73;;;1.20;;
9374;SDS011;4727;51.202;6.344;2022-12-29T05:36:59;3.07;;;1.83;;
9374;SDS011;4727;51.202;6.344;2022-12-29T05:39:26;1.30;;;1.10;;
9374;SDS011;4727;51.202;6.344;2022-12-29T05:41:52;1.93;;;1.20;;
9374;SDS011;4727;51.202;6.344;2022-12-29T05:44:18;3.00;;;1.30;;
9374;SDS011;4727;51.202;6.344;2022-12-29T05:46:44;2.73;;;1.07;;
9374;SDS011;4727;51.202;6.344;2022-12-29T05:49:10;1.47;;;0.83;;
9374;SDS011;4727;51.202;6.344;2022-12-29T05:51:36;1.53;;;1.37;;
9374;SDS011;4727;51.202;6.344;2022-12-29T05:54:02;3.13;;;1.17;;
9374;SDS011;4727;51.202;6.344;2022-12-29T05:56:28;1.83;;;1.20;;
9374;SDS011;4727;51.202;6.344;2022-12-29T05:58:54;1.50;;;1.40;;
9374;SDS011;4727;51.202;6.344;2022-12-29T06:01:20;2.40;;;1.23;;
9374;SDS011;4727;51.202;6.344;2022-12-29T06:03:46;2.33;;;1.20;;
9374;SDS011;4727;51.202;6.344;2022-12-29T06:06:12;2.73;;;1.40;;
9374;SDS011;4727;51.202;6.344;2022-12-29T06:08:38;2.10;;;1.33;;
9374;SDS011;4727;51.202;6.344;2022-12-29T06:11:04;2.87;;;1.27;;
9374;SDS011;4727;51.202;6.344;2022-12-29T06:13:30;2.37;;;0.93;;
9374;SDS011;4727;51.202;6.344;2022-12-29T06:15:56;4.00;;;1.57;;
9374;SDS011;4727;51.202;6.344;2022-12-29T06:18:22;3.13;;;1.20;;
9374;SDS011;4727;51.202;6.344;2022-12-29T06:20:48;3.60;;;1.57;;
9374;SDS011;4727;51.202;6.344;2022-12-29T06:23:14;5.63;;;1.57;;
9374;SDS011;4727;51.202;6.344;2022-12-29T06:25:41;2.17;;;1.50;;
9374;SDS011;4727;51.202;6.344;2022-12-29T06:28:07;1.53;;;1.10;;
9374;SDS011;4727;51.202;6.344;2022-12-29T06:30:35;3.50;;;1.10;;
9374;SDS011;4727;51.202;6.344;2022-12-29T06:33:01;1.87;;;1.27;;
9374;SDS011;4727;51.202;6.344;2022-12-29T06:35:27;3.27;;;1.53;;
9374;SDS011;4727;51.202;6.344;2022-12-29T06:37:53;1.60;;;1.33;;
9374;SDS011;4727;51.202;6.344;2022-12-29T06:40:19;2.17;;;1.67;;
9374;SDS011;4727;51.202;6.344;2022-12-29T06:42:46;3.87;;;2.20;;
9374;SDS011;4727;51.202;6.344;2022-12-29T06:45:12;1.83;;;1.60;;
9374;SDS011;4727;51.202;6.344;2022-12-29T06:47:38;1.83;;;1.20;;
9374;SDS011;4727;51.202;6.344;2022-12-29T06:50:04;1.93;;;1.20;;
9374;SDS011;4727;51.202;6.344;2022-12-29T06:52:30;1.10;;;1.00;;
9374;SDS011;4727;51.202;6.344;2022-12-29T06:54:56;2.50;;;1.53;;
9374;SDS011;4727;51.202;6.344;2022-12-29T06:57:22;2.73;;;1.10;;
9374;SDS011;4727;51.202;6.344;2022-12-29T06:59:48;2.80;;;1.60;;
9374;SDS011;4727;51.202;6.344;2022-12-29T07:02:14;3.10;;;1.40;;
9374;SDS011;4727;51.202;6.344;2022-12-29T07:04:43;5.73;;;1.67;;
9374;SDS011;4727;51.202;6.344;2022-12-29T07:07:09;4.03;;;1.47;;
9374;SDS011;4727;51.202;6.344;2022-12-29T07:09:35;3.90;;;1.63;;
9374;SDS011;4727;51.202;6.344;2022-12-29T07:12:00;1.10;;;1.00;;
9374;SDS011;4727;51.202;6.344;2022-12-29T07:14:26;4.07;;;1.57;;
9374;SDS011;4727;51.202;6.344;2022-12-29T07:16:52;2.67;;;1.40;;
9374;SDS011;4727;51.202;6.344;2022-12-29T07:19:19;2.97;;;1.57;;
9374;SDS011;4727;51.202;6.344;2022-12-29T07:21:45;4.07;;;1.60;;
9374;SDS011;4727;51.202;6.344;2022-12-29T07:24:11;3.97;;;1.63;;
9374;SDS011;4727;51.202;6.344;2022-12-29T07:26:37;4.70;;;1.50;;
9374;SDS011;4727;51.202;6.344;2022-12-29T07:29:03;1.70;;;1.40;;
9374;SDS011;4727;51.202;6.344;2022-12-29T07:31:29;4.83;;;2.43;;
9374;SDS011;4727;51.202;6.344;2022-12-29T07:33:55;5.50;;;2.07;;
9374;SDS011;4727;51.202;6.344;2022-12-29T07:36:21;6.90;;;1.27;;
9374;SDS011;4727;51.202;6.344;2022-12-29T07:38:47;4.27;;;1.63;;
9374;SDS011;4727;51.202;6.344;2022-12-29T07:41:13;2.10;;;1.10;;
9374;SDS011;4727;51.202;6.344;2022-12-29T07:43:39;6.73;;;1.70;;
9374;SDS011;4727;51.202;6.344;2022-12-29T07:46:05;4.30;;;1.80;;
9374;SDS011;4727;51.202;6.344;2022-12-29T07:48:31;3.53;;;2.20;;
9374;SDS011;4727;51.202;6.344;2022-12-29T07:51:00;5.10;;;1.53;;
9374;SDS011;4727;51.202;6.344;2022-12-29T07:53:26;4.77;;;1.77;;
9374;SDS011;4727;51.202;6.344;2022-12-29T07:55:52;3.10;;;1.57;;
9374;SDS011;4727;51.202;6.344;2022-12-29T07:58:18;5.60;;;1.73;;
9374;SDS011;4727;51.202;6.344;2022-12-29T08:00:44;4.13;;;1.47;;
9374;SDS011;4727;51.202;6.344;2022-12-29T08:03:10;4.60;;;1.67;;
9374;SDS011;4727;51.202;6.344;2022-12-29T08:05:36;3.60;;;1.63;;
9374;SDS011;4727;51.202;6.344;2022-12-29T08:08:02;4.90;;;1.83;;
9374;SDS011;4727;51.202;6.344;2022-12-29T08:10:28;4.67;;;1.93;;
9374;SDS011;4727;51.202;6.344;2022-12-29T08:12:54;4.47;;;2.07;;
9374;SDS011;4727;51.202;6.344;2022-12-29T08:15:23;3.30;;;2.03;;
9374;SDS011;4727;51.202;6.344;2022-12-29T08:17:49;5.80;;;2.20;;
9374;SDS011;4727;51.202;6.344;2022-12-29T08:20:15;4.67;;;1.57;;
9374;SDS011;4727;51.202;6.344;2022-12-29T08:22:41;5.23;;;1.93;;
9374;SDS011;4727;51.202;6.344;2022-12-29T08:25:07;5.40;;;2.40;;
9374;SDS011;4727;51.202;6.344;2022-12-29T08:27:33;5.87;;;2.00;;
9374;SDS011;4727;51.202;6.344;2022-12-29T08:29:59;5.63;;;2.00;;
9374;SDS011;4727;51.202;6.344;2022-12-29T08:32:26;6.50;;;2.10;;
9374;SDS011;4727;51.202;6.344;2022-12-29T08:34:53;6.60;;;1.57;;
9374;SDS011;4727;51.202;6.344;2022-12-29T08:37:19;5.07;;;2.07;;
9374;SDS011;4727;51.202;6.344;2022-12-29T08:39:45;5.27;;;2.30;;
9374;SDS011;4727;51.202;6.344;2022-12-29T08:42:11;3.23;;;1.70;;
9374;SDS011;4727;51.202;6.344;2022-12-29T08:44:37;5.60;;;2.43;;
9374;SDS011;4727;51.202;6.344;2022-12-29T08:47:03;7.63;;;2.60;;
9374;SDS011;4727;51.202;6.344;2022-12-29T08:49:29;8.20;;;2.57;;
9374;SDS011;4727;51.202;6.344;2022-12-29T08:51:55;4.80;;;2.27;;
9374;SDS011;4727;51.202;6.344;2022-12-29T08:54:21;4.20;;;1.50;;
9374;SDS011;4727;51.202;6.344;2022-12-29T08:56:47;5.13;;;1.80;;
9374;SDS011;4727;51.202;6.344;2022-12-29T08:59:13;4.70;;;1.93;;
9374;SDS011;4727;51.202;6.344;2022-12-29T09:01:39;5.43;;;2.30;;
9374;SDS011;4727;51.202;6.344;2022-12-29T09:04:06;7.00;;;2.57;;
9374;SDS011;4727;51.202;6.344;2022-12-29T09:06:33;2.97;;;1.30;;
9374;SDS011;4727;51.202;6.344;2022-12-29T09:08:59;4.43;;;2.40;;
9374;SDS011;4727;51.202;6.344;2022-12-29T09:11:25;5.83;;;2.30;;
9374;SDS011;4727;51.202;6.344;2022-12-29T09:13:52;5.70;;;2.37;;
9374;SDS011;4727;51.202;6.344;2022-12-29T09:16:18;5.73;;;2.20;;
9374;SDS011;4727;51.202;6.344;2022-12-29T09:18:45;6.20;;;2.57;;
9374;SDS011;4727;51.202;6.344;2022-12-29T09:21:11;5.03;;;1.73;;
9374;SDS011;4727;51.202;6.344;2022-12-29T09:23:37;5.30;;;1.90;;
9374;SDS011;4727;51.202;6.344;2022-12-29T09:26:04;5.10;;;2.37;;
9374;SDS011;4727;51.202;6.344;2022-12-29T09:28:30;4.03;;;2.70;;
9374;SDS011;4727;51.202;6.344;2022-12-29T09:30:57;3.27;;;1.73;;
9374;SDS011;4727;51.202;6.344;2022-12-29T09:33:23;5.37;;;2.47;;
9374;SDS011;4727;51.202;6.344;2022-12-29T09:35:54;5.27;;;2.47;;
9374;SDS011;4727;51.202;6.344;2022-12-29T09:38:20;5.80;;;2.57;;
9374;SDS011;4727;51.202;6.344;2022-12-29T09:40:49;10.10;;;3.13;;
9374;SDS011;4727;51.202;6.344;2022-12-29T09:48:22;5.37;;;2.40;;
9374;SDS011;4727;51.202;6.344;2022-12-29T09:50:50;4.07;;;2.07;;
9374;SDS011;4727;51.202;6.344;2022-12-29T09:55:55;7.77;;;2.20;;
9374;SDS011;4727;51.202;6.344;2022-12-29T09:58:29;5.30;;;1.90;;
9374;SDS011;4727;51.202;6.344;2022-12-29T10:00:58;6.97;;;4.07;;
9374;SDS011;4727;51.202;6.344;2022-12-29T10:03:47;3.53;;;2.00;;
9374;SDS011;4727;51.202;6.344;2022-12-29T10:14:17;6.73;;;2.17;;
9374;SDS011;4727;51.202;6.344;2022-12-29T10:24:45;3.33;;;1.50;;
9374;SDS011;4727;51.202;6.344;2022-12-29T10:27:13;6.93;;;2.50;;
9374;SDS011;4727;51.202;6.344;2022-12-29T10:29:41;6.30;;;2.27;;
9374;SDS011;4727;51.202;6.344;2022-12-29T10:35:25;5.27;;;2.53;;
9374;SDS011;4727;51.202;6.344;2022-12-29T10:37:54;3.63;;;1.97;;
9374;SDS011;4727;51.202;6.344;2022-12-29T10:40:25;4.80;;;2.40;;
9374;SDS011;4727;51.202;6.344;2022-12-29T10:42:53;4.10;;;2.30;;
9374;SDS011;4727;51.202;6.344;2022-12-29T10:45:20;5.27;;;2.47;;
9374;SDS011;4727;51.202;6.344;2022-12-29T10:47:54;6.97;;;2.53;;
9374;SDS011;4727;51.202;6.344;2022-12-29T10:50:22;7.67;;;2.90;;
9374;SDS011;4727;51.202;6.344;2022-12-29T10:52:48;2.00;;;1.37;;
9374;SDS011;4727;51.202;6.344;2022-12-29T10:55:15;6.30;;;2.57;;
9374;SDS011;4727;51.202;6.344;2022-12-29T10:57:43;6.90;;;2.50;;
9374;SDS011;4727;51.202;6.344;2022-12-29T11:00:14;5.77;;;2.73;;
9374;SDS011;4727;51.202;6.344;2022-12-29T11:07:59;5.43;;;2.50;;
9374;SDS011;4727;51.202;6.344;2022-12-29T11:10:34;5.90;;;2.40;;
9374;SDS011;4727;51.202;6.344;2022-12-29T11:13:03;7.97;;;2.40;;
9374;SDS011;4727;51.202;6.344;2022-12-29T11:15:50;7.87;;;3.10;;
9374;SDS011;4727;51.202;6.344;2022-12-29T11:18:26;6.13;;;2.53;;
9374;SDS011;4727;51.202;6.344;2022-12-29T11:20:56;5.00;;;2.07;;
9374;SDS011;4727;51.202;6.344;2022-12-29T11:28:43;7.53;;;2.53;;
9374;SDS011;4727;51.202;6.344;2022-12-29T11:31:10;6.67;;;1.97;;
9374;SDS011;4727;51.202;6.344;2022-12-29T11:33:37;5.10;;;1.70;;
9374;SDS011;4727;51.202;6.344;2022-12-29T11:36:04;6.07;;;2.53;;
9374;SDS011;4727;51.202;6.344;2022-12-29T11:38:35;6.80;;;2.40;;
9374;SDS011;4727;51.202;6.344;2022-12-29T11:41:02;4.90;;;2.13;;
9374;SDS011;4727;51.202;6.344;2022-12-29T11:45:54;3.23;;;2.47;;
9374;SDS011;4727;51.202;6.344;2022-12-29T11:48:21;6.60;;;2.30;;
9374;SDS011;4727;51.202;6.344;2022-12-29T11:50:50;5.50;;;2.40;;
9374;SDS011;4727;51.202;6.344;2022-12-29T11:53:20;5.00;;;2.00;;
9374;SDS011;4727;51.202;6.344;2022-12-29T11:55:57;6.67;;;2.50;;
9374;SDS011;4727;51.202;6.344;2022-12-29T11:58:57;3.97;;;1.93;;
9374;SDS011;4727;51.202;6.344;2022-12-29T12:03:48;6.73;;;2.30;;
9374;SDS011;4727;51.202;6.344;2022-12-29T12:06:19;6.20;;;2.87;;
9374;SDS011;4727;51.202;6.344;2022-12-29T12:08:56;4.43;;;2.00;;
9374;SDS011;4727;51.202;6.344;2022-12-29T12:11:28;5.90;;;2.63;;
9374;SDS011;4727;51.202;6.344;2022-12-29T12:16:28;6.47;;;2.50;;
9374;SDS011;4727;51.202;6.344;2022-12-29T12:18:58;7.67;;;2.40;;
9374;SDS011;4727;51.202;6.344;2022-12-29T12:21:29;6.67;;;2.53;;
9374;SDS011;4727;51.202;6.344;2022-12-29T12:24:07;7.47;;;2.40;;
9374;SDS011;4727;51.202;6.344;2022-12-29T12:26:55;4.37;;;2.57;;
9374;SDS011;4727;51.202;6.344;2022-12-29T12:29:25;6.47;;;2.73;;
9374;SDS011;4727;51.202;6.344;2022-12-29T12:31:55;7.33;;;2.73;;
9374;SDS011;4727;51.202;6.344;2022-12-29T12:49:32;5.50;;;2.70;;
9374;SDS011;4727;51.202;6.344;2022-12-29T12:57:30;5.70;;;2.60;;
9374;SDS011;4727;51.202;6.344;2022-12-29T13:13:03;5.97;;;2.37;;
9374;SDS011;4727;51.202;6.344;2022-12-29T13:36:31;5.43;;;2.20;;
9374;SDS011;4727;51.202;6.344;2022-12-29T13:39:04;6.77;;;3.27;;
9374;SDS011;4727;51.202;6.344;2022-12-29T13:41:35;3.90;;;2.37;;
9374;SDS011;4727;51.202;6.344;2022-12-29T13:44:03;6.17;;;2.97;;
9374;SDS011;4727;51.202;6.344;2022-12-29T13:46:34;6.93;;;2.63;;
9374;SDS011;4727;51.202;6.344;2022-12-29T13:49:02;6.70;;;2.80;;
9374;SDS011;4727;51.202;6.344;2022-12-29T13:51:30;7.00;;;2.53;;
9374;SDS011;4727;51.202;6.344;2022-12-29T14:02:02;6.03;;;1.93;;
9374;SDS011;4727;51.202;6.344;2022-12-29T14:04:30;6.93;;;2.53;;
9374;SDS011;4727;51.202;6.344;2022-12-29T14:07:04;7.63;;;2.60;;
9374;SDS011;4727;51.202;6.344;2022-12-29T14:11:56;5.67;;;2.37;;
9374;SDS011;4727;51.202;6.344;2022-12-29T14:14:23;4.87;;;2.10;;
9374;SDS011;4727;51.202;6.344;2022-12-29T14:16:50;6.03;;;2.47;;
9374;SDS011;4727;51.202;6.344;2022-12-29T14:21:50;6.57;;;2.37;;
9374;SDS011;4727;51.202;6.344;2022-12-29T14:24:27;5.50;;;2.47;;
9374;SDS011;4727;51.202;6.344;2022-12-29T14:26:53;6.33;;;2.07;;
9374;SDS011;4727;51.202;6.344;2022-12-29T14:31:52;5.10;;;2.10;;
9374;SDS011;4727;51.202;6.344;2022-12-29T14:42:01;2.27;;;1.70;;
9374;SDS011;4727;51.202;6.344;2022-12-29T14:44:28;5.63;;;2.57;;
9374;SDS011;4727;51.202;6.344;2022-12-29T14:49:25;6.03;;;2.30;;
9374;SDS011;4727;51.202;6.344;2022-12-29T14:51:52;3.87;;;1.90;;
9374;SDS011;4727;51.202;6.344;2022-12-29T14:57:07;4.93;;;2.27;;
9374;SDS011;4727;51.202;6.344;2022-12-29T14:59:34;4.60;;;1.47;;
9374;SDS011;4727;51.202;6.344;2022-12-29T15:02:02;7.70;;;2.60;;
9374;SDS011;4727;51.202;6.344;2022-12-29T15:04:33;4.53;;;2.30;;
9374;SDS011;4727;51.202;6.344;2022-12-29T15:07:00;4.67;;;2.50;;
9374;SDS011;4727;51.202;6.344;2022-12-29T15:11:55;4.20;;;2.07;;
9374;SDS011;4727;51.202;6.344;2022-12-29T15:14:36;4.63;;;2.33;;
9374;SDS011;4727;51.202;6.344;2022-12-29T15:17:10;4.30;;;2.10;;
9374;SDS011;4727;51.202;6.344;2022-12-29T15:19:36;5.57;;;2.50;;
9374;SDS011;4727;51.202;6.344;2022-12-29T15:22:02;7.57;;;2.33;;
9374;SDS011;4727;51.202;6.344;2022-12-29T15:24:29;7.43;;;2.70;;
9374;SDS011;4727;51.202;6.344;2022-12-29T15:26:55;6.70;;;2.70;;
9374;SDS011;4727;51.202;6.344;2022-12-29T15:29:28;6.67;;;2.40;;
9374;SDS011;4727;51.202;6.344;2022-12-29T15:31:55;7.33;;;2.50;;
9374;SDS011;4727;51.202;6.344;2022-12-29T15:34:21;5.10;;;2.80;;
9374;SDS011;4727;51.202;6.344;2022-12-29T15:36:49;6.63;;;2.47;;
9374;SDS011;4727;51.202;6.344;2022-12-29T15:39:19;7.90;;;2.27;;
9374;SDS011;4727;51.202;6.344;2022-12-29T15:41:48;6.37;;;2.40;;
9374;SDS011;4727;51.202;6.344;2022-12-29T15:44:29;9.67;;;2.77;;
9374;SDS011;4727;51.202;6.344;2022-12-29T15:46:56;5.37;;;2.53;;
9374;SDS011;4727;51.202;6.344;2022-12-29T15:49:23;8.80;;;2.50;;
9374;SDS011;4727;51.202;6.344;2022-12-29T15:51:49;7.80;;;2.90;;
9374;SDS011;4727;51.202;6.344;2022-12-29T15:54:19;9.23;;;3.40;;
9374;SDS011;4727;51.202;6.344;2022-12-29T15:56:46;8.07;;;2.80;;
9374;SDS011;4727;51.202;6.344;2022-12-29T15:59:25;8.87;;;3.07;;
9374;SDS011;4727;51.202;6.344;2022-12-29T16:01:52;9.63;;;2.97;;
9374;SDS011;4727;51.202;6.344;2022-12-29T16:04:18;8.23;;;2.87;;
9374;SDS011;4727;51.202;6.344;2022-12-29T16:06:53;7.53;;;2.43;;
9374;SDS011;4727;51.202;6.344;2022-12-29T16:09:29;10.30;;;2.83;;
9374;SDS011;4727;51.202;6.344;2022-12-29T16:11:55;7.70;;;2.67;;
9374;SDS011;4727;51.202;6.344;2022-12-29T16:17:11;9.20;;;3.40;;
9374;SDS011;4727;51.202;6.344;2022-12-29T16:19:38;5.53;;;2.33;;
9374;SDS011;4727;51.202;6.344;2022-12-29T16:22:27;8.37;;;2.60;;
9374;SDS011;4727;51.202;6.344;2022-12-29T16:24:54;6.23;;;2.50;;
9374;SDS011;4727;51.202;6.344;2022-12-29T16:27:21;7.07;;;2.43;;
9374;SDS011;4727;51.202;6.344;2022-12-29T16:29:49;6.13;;;2.80;;
9374;SDS011;4727;51.202;6.344;2022-12-29T16:32:26;9.27;;;3.30;;
9374;SDS011;4727;51.202;6.344;2022-12-29T16:35:05;8.57;;;2.93;;
9374;SDS011;4727;51.202;6.344;2022-12-29T16:37:35;9.03;;;3.77;;
9374;SDS011;4727;51.202;6.344;2022-12-29T16:42:53;7.90;;;2.80;;
9374;SDS011;4727;51.202;6.344;2022-12-29T16:50:34;8.13;;;2.80;;
9374;SDS011;4727;51.202;6.344;2022-12-29T16:53:00;9.47;;;3.27;;
9374;SDS011;4727;51.202;6.344;2022-12-29T16:55:27;5.83;;;2.00;;
9374;SDS011;4727;51.202;6.344;2022-12-29T16:57:53;6.70;;;2.97;;
9374;SDS011;4727;51.202;6.344;2022-12-29T17:00:24;10.27;;;3.70;;
9374;SDS011;4727;51.202;6.344;2022-12-29T17:02:51;7.93;;;3.10;;
9374;SDS011;4727;51.202;6.344;2022-12-29T17:05:19;8.90;;;3.67;;
9374;SDS011;4727;51.202;6.344;2022-12-29T17:07:45;7.27;;;3.20;;
9374;SDS011;4727;51.202;6.344;2022-12-29T17:10:11;6.30;;;2.80;;
9374;SDS011;4727;51.202;6.344;2022-12-29T17:12:45;8.10;;;2.80;;
9374;SDS011;4727;51.202;6.344;2022-12-29T17:17:49;4.63;;;2.20;;
9374;SDS011;4727;51.202;6.344;2022-12-29T17:20:20;3.23;;;1.50;;
9374;SDS011;4727;51.202;6.344;2022-12-29T17:22:50;4.87;;;2.17;;
9374;SDS011;4727;51.202;6.344;2022-12-29T17:25:20;4.37;;;1.43;;
9374;SDS011;4727;51.202;6.344;2022-12-29T17:27:51;4.13;;;2.00;;
9374;SDS011;4727;51.202;6.344;2022-12-29T17:30:20;4.30;;;1.70;;
9374;SDS011;4727;51.202;6.344;2022-12-29T17:35:25;5.03;;;1.50;;
9374;SDS011;4727;51.202;6.344;2022-12-29T17:37:52;3.00;;;1.73;;
9374;SDS011;4727;51.202;6.344;2022-12-29T17:40:19;6.80;;;1.90;;
9374;SDS011;4727;51.202;6.344;2022-12-29T17:42:47;4.27;;;1.70;;
9374;SDS011;4727;51.202;6.344;2022-12-29T17:47:40;6.40;;;1.57;;
9374;SDS011;4727;51.202;6.344;2022-12-29T17:50:09;6.97;;;2.57;;
9374;SDS011;4727;51.202;6.344;2022-12-29T17:52:35;4.80;;;2.23;;
9374;SDS011;4727;51.202;6.344;2022-12-29T17:55:01;6.73;;;2.80;;
9374;SDS011;4727;51.202;6.344;2022-12-29T17:57:27;8.63;;;3.00;;
9374;SDS011;4727;51.202;6.344;2022-12-29T17:59:53;9.87;;;2.90;;
9374;SDS011;4727;51.202;6.344;2022-12-29T18:02:27;10.57;;;3.10;;
9374;SDS011;4727;51.202;6.344;2022-12-29T18:04:53;7.37;;;2.87;;
9374;SDS011;4727;51.202;6.344;2022-12-29T18:07:20;10.40;;;3.13;;
9374;SDS011;4727;51.202;6.344;2022-12-29T18:09:46;9.07;;;3.30;;
9374;SDS011;4727;51.202;6.344;2022-12-29T18:12:19;12.97;;;3.20;;
9374;SDS011;4727;51.202;6.344;2022-12-29T18:14:50;10.50;;;3.60;;
9374;SDS011;4727;51.202;6.344;2022-12-29T18:17:16;7.03;;;3.60;;
9374;SDS011;4727;51.202;6.344;2022-12-29T18:19:42;7.43;;;3.47;;
9374;SDS011;4727;51.202;6.344;2022-12-29T18:22:08;8.87;;;3.80;;
9374;SDS011;4727;51.202;6.344;2022-12-29T18:24:34;5.87;;;2.93;;